Data Viewer
| City | State | Eastern Time | Source | Temp | DewPt | RH | BP | 5 Min Precip | Wind Speed | Wind Dir | 5 Min Wind Max | 5 Min Wind Max Dir |
|---|---|---|---|---|---|---|---|---|---|---|---|---|
| Readington | NJ | 2026-05-04 07:24 | NCAWOS | 46 | 30 | 53 | 30.00 | 6 | SW | |||
| Readington | NJ | 2026-05-04 23:09 | NCAWOS | 59 | 37 | 45 | 29.86 | 0 | N | |||
| Readington | NJ | 2026-05-05 02:05 | NCAWOS | 50 | 43 | 76 | 29.87 | 0 | N | |||
| Readington | NJ | 2026-05-05 01:14 | NCAWOS | 57 | 43 | 59 | 29.86 | 3 | S | |||
| Readington | NJ | 2026-05-05 01:04 | NCAWOS | 57 | 43 | 59 | 29.86 | 6 | SSW | |||
| Readington | NJ | 2026-05-05 00:25 | NCAWOS | 54 | 39 | 58 | 29.88 | 0 | N | |||
| Readington | NJ | 2026-05-05 00:19 | NCAWOS | 54 | 39 | 58 | 29.88 | 0 | N | |||
| Readington | NJ | 2026-05-05 00:15 | NCAWOS | 52 | 39 | 62 | 29.88 | 0 | N | |||
| Readington | NJ | 2026-05-05 00:09 | NCAWOS | 52 | 39 | 62 | 29.87 | 0 | N | |||
| Readington | NJ | 2026-05-05 00:05 | NCAWOS | 52 | 39 | 62 | 29.87 | 0 | N | |||
| Readington | NJ | 2026-05-04 23:19 | NCAWOS | 55 | 39 | 54 | 29.87 | 3 | ESE | |||
| Readington | NJ | 2026-05-04 23:14 | NCAWOS | 57 | 37 | 47 | 29.86 | 0 | N | |||
| Readington | NJ | 2026-05-04 23:04 | NCAWOS | 61 | 37 | 42 | 29.86 | 0 | N | |||
| Readington | NJ | 2026-05-05 02:14 | NCAWOS | 50 | 43 | 76 | 29.87 | 0 | N | |||
| Readington | NJ | 2026-05-04 22:24 | NCAWOS | 61 | 37 | 42 | 29.87 | 5 | S | |||
| Readington | NJ | 2026-05-04 22:20 | NCAWOS | 61 | 37 | 42 | 29.87 | 6 | S | |||
| Readington | NJ | 2026-05-04 22:14 | NCAWOS | 61 | 37 | 42 | 29.87 | 6 | S | |||
| Readington | NJ | 2026-05-04 22:10 | NCAWOS | 61 | 37 | 42 | 29.87 | 5 | S | |||
| Readington | NJ | 2026-05-04 22:04 | NCAWOS | 61 | 37 | 42 | 29.87 | 3 | SSE | |||
| Readington | NJ | 2026-05-04 21:24 | NCAWOS | 63 | 35 | 36 | 29.86 | 3 | SSE | |||
| Readington | NJ | 2026-05-04 21:19 | NCAWOS | 63 | 35 | 36 | 29.86 | 3 | SSE | |||
| Readington | NJ | 2026-05-04 21:14 | NCAWOS | 63 | 35 | 36 | 29.86 | 3 | SSE | |||
| Readington | NJ | 2026-05-04 21:09 | NCAWOS | 63 | 35 | 36 | 29.86 | 3 | SSE | |||
| Readington | NJ | 2026-05-04 21:04 | NCAWOS | 63 | 35 | 36 | 29.85 | 3 | SE | |||
| Readington | NJ | 2026-05-05 02:09 | NCAWOS | 50 | 43 | 76 | 29.87 | 0 | N | |||
| Readington | NJ | 2026-05-05 02:19 | NCAWOS | 50 | 43 | 76 | 29.87 | 0 | N | |||
| Readington | NJ | 2026-05-04 20:25 | NCAWOS | 64 | 35 | 34 | 29.84 | 3 | SSE | |||
| Readington | NJ | 2026-05-05 05:04 | NCAWOS | 50 | 45 | 82 | 29.87 | 0 | N | |||
| Readington | NJ | 2026-05-05 06:25 | NCAWOS | 55 | 48 | 77 | 29.88 | 5 | S | |||
| Readington | NJ | 2026-05-05 06:20 | NCAWOS | 55 | 48 | 77 | 29.88 | 7 | S | |||
| Readington | NJ | 2026-05-05 06:15 | NCAWOS | 54 | 48 | 82 | 29.89 | 7 | SSW | |||
| Readington | NJ | 2026-05-05 06:10 | NCAWOS | 54 | 48 | 82 | 29.89 | 5 | S | |||
| Readington | NJ | 2026-05-05 06:04 | NCAWOS | 54 | 48 | 82 | 29.89 | 0 | N | |||
| Readington | NJ | 2026-05-05 06:00 | NCAWOS | 54 | 46 | 77 | 29.90 | 0 | N | |||
| Readington | NJ | 2026-05-05 05:24 | NCAWOS | 50 | 45 | 82 | 29.88 | 3 | ENE | |||
| Readington | NJ | 2026-05-05 05:19 | NCAWOS | 50 | 45 | 82 | 29.88 | 7 | NNW | |||
| Readington | NJ | 2026-05-05 05:14 | NCAWOS | 50 | 45 | 82 | 29.87 | 0 | N | |||
| Readington | NJ | 2026-05-05 05:09 | NCAWOS | 50 | 45 | 82 | 29.87 | 0 | N | |||
| Readington | NJ | 2026-05-05 04:30 | NCAWOS | 52 | 45 | 76 | 29.87 | 0 | N | |||
| Readington | NJ | 2026-05-05 02:25 | NCAWOS | 50 | 43 | 76 | 29.87 | 0 | N | |||
| Readington | NJ | 2026-05-05 04:24 | NCAWOS | 52 | 45 | 76 | 29.87 | 0 | N | |||
| Readington | NJ | 2026-05-05 04:20 | NCAWOS | 52 | 45 | 76 | 29.87 | 0 | N | |||
| Readington | NJ | 2026-05-05 04:14 | NCAWOS | 52 | 45 | 76 | 29.87 | 0 | N | |||
| Readington | NJ | 2026-05-05 04:10 | NCAWOS | 52 | 45 | 76 | 29.87 | 0 | N | |||
| Readington | NJ | 2026-05-05 04:04 | NCAWOS | 50 | 45 | 82 | 29.87 | 0 | N | |||
| Readington | NJ | 2026-05-05 04:00 | NCAWOS | 50 | 45 | 82 | 29.87 | 0 | N | |||
| Readington | NJ | 2026-05-05 03:24 | NCAWOS | 50 | 43 | 76 | 29.87 | 0 | N | |||
| Readington | NJ | 2026-05-05 03:19 | NCAWOS | 50 | 43 | 76 | 29.87 | 0 | N | |||
| Readington | NJ | 2026-05-05 03:14 | NCAWOS | 50 | 43 | 76 | 29.87 | 0 | N | |||
| Readington | NJ | 2026-05-05 03:09 | NCAWOS | 48 | 43 | 81 | 29.87 | 0 | N | |||
| Readington | NJ | 2026-05-05 03:04 | NCAWOS | 48 | 43 | 81 | 29.87 | 0 | N | |||
| Readington | NJ | 2026-05-04 20:30 | NCAWOS | 64 | 35 | 34 | 29.85 | 3 | SSE | |||
| Readington | NJ | 2026-05-04 20:15 | NCAWOS | 66 | 36 | 32 | 29.84 | 5 | SSE | |||
| Readington | NJ | 2026-05-04 08:05 | NCAWOS | 52 | 35 | 54 | 29.99 | 9 | WSW | |||
| Readington | NJ | 2026-05-04 10:24 | NCAWOS | 63 | 35 | 36 | 29.95 | 11 | SW | |||
| Readington | NJ | 2026-05-04 12:24 | NCAWOS | 66 | 32 | 28 | 29.92 | 13 | SW | |||
| Readington | NJ | 2026-05-04 12:20 | NCAWOS | 64 | 30 | 28 | 29.92 | 9 | W | |||
| Readington | NJ | 2026-05-04 12:14 | NCAWOS | 66 | 32 | 28 | 29.93 | 13 | WSW | |||
| Readington | NJ | 2026-05-04 12:04 | NCAWOS | 64 | 30 | 28 | 29.93 | 14 | WSW | |||
| Readington | NJ | 2026-05-04 11:24 | NCAWOS | 64 | 30 | 28 | 29.94 | 8 | W | |||
| Readington | NJ | 2026-05-04 11:19 | NCAWOS | 64 | 32 | 30 | 29.94 | 11 | W | |||
| Readington | NJ | 2026-05-04 11:14 | NCAWOS | 64 | 32 | 30 | 29.94 | 11 | WSW | |||
| Readington | NJ | 2026-05-04 11:09 | NCAWOS | 64 | 32 | 30 | 29.94 | 11 | SSW | |||
| Readington | NJ | 2026-05-04 11:04 | NCAWOS | 64 | 32 | 30 | 29.94 | 11 | SW | |||
| Readington | NJ | 2026-05-04 10:30 | NCAWOS | 63 | 34 | 34 | 29.95 | 13 | SW | |||
| Readington | NJ | 2026-05-04 10:20 | NCAWOS | 63 | 34 | 34 | 29.95 | 13 | SW | |||
| Readington | NJ | 2026-05-04 13:14 | NCAWOS | 68 | 34 | 28 | 29.90 | 16 | SW | |||
| Readington | NJ | 2026-05-04 10:15 | NCAWOS | 63 | 34 | 34 | 29.95 | 11 | SW | |||
| Readington | NJ | 2026-05-04 10:10 | NCAWOS | 63 | 35 | 36 | 29.96 | 10 | SW | |||
| Readington | NJ | 2026-05-04 10:04 | NCAWOS | 61 | 34 | 36 | 29.95 | 9 | WSW | |||
| Readington | NJ | 2026-05-04 09:24 | NCAWOS | 57 | 35 | 44 | 29.96 | 10 | SW | |||
| Readington | NJ | 2026-05-04 09:09 | NCAWOS | 57 | 35 | 44 | 29.97 | 9 | WSW | |||
| Readington | NJ | 2026-05-04 09:04 | NCAWOS | 57 | 35 | 44 | 29.97 | 9 | WSW | |||
| Readington | NJ | 2026-05-04 08:29 | NCAWOS | 54 | 37 | 54 | 29.99 | 9 | SW | |||
| Readington | NJ | 2026-05-04 08:25 | NCAWOS | 54 | 35 | 50 | 29.99 | 7 | SW | |||
| Readington | NJ | 2026-05-04 08:19 | NCAWOS | 54 | 35 | 50 | 29.99 | 9 | WSW | |||
| Readington | NJ | 2026-05-04 08:15 | NCAWOS | 54 | 37 | 54 | 29.99 | 9 | SW | |||
| Readington | NJ | 2026-05-04 08:09 | NCAWOS | 52 | 35 | 54 | 29.99 | 7 | SW | |||
| Readington | NJ | 2026-05-04 13:04 | NCAWOS | 66 | 32 | 28 | 29.90 | 13 | WSW | |||
| Readington | NJ | 2026-05-04 14:04 | NCAWOS | 70 | 32 | 25 | 29.88 | 14 | WSW | |||
| Readington | NJ | 2026-05-04 20:09 | NCAWOS | 66 | 36 | 32 | 29.84 | 5 | SSW | |||
| Readington | NJ | 2026-05-04 17:09 | NCAWOS | 72 | 34 | 25 | 29.83 | 11 | WSW | |||
| Readington | NJ | 2026-05-04 20:04 | NCAWOS | 66 | 36 | 32 | 29.84 | 6 | SSW | |||
| Readington | NJ | 2026-05-04 19:24 | NCAWOS | 70 | 36 | 28 | 29.83 | 9 | SW | |||
| Readington | NJ | 2026-05-04 19:19 | NCAWOS | 70 | 36 | 28 | 29.83 | 9 | SW | |||
| Readington | NJ | 2026-05-04 19:14 | NCAWOS | 70 | 36 | 28 | 29.83 | 9 | SW | |||
| Readington | NJ | 2026-05-04 19:09 | NCAWOS | 70 | 34 | 26 | 29.83 | 10 | SW | |||
| Readington | NJ | 2026-05-04 19:04 | NCAWOS | 70 | 36 | 28 | 29.83 | 11 | SW | |||
| Readington | NJ | 2026-05-04 18:29 | NCAWOS | 72 | 34 | 25 | 29.82 | 14 | WSW | |||
| Readington | NJ | 2026-05-04 18:25 | NCAWOS | 72 | 34 | 25 | 29.82 | 11 | WSW | |||
| Readington | NJ | 2026-05-04 18:09 | NCAWOS | 72 | 34 | 25 | 29.82 | 9 | WSW | |||
| Readington | NJ | 2026-05-04 17:24 | NCAWOS | 72 | 34 | 25 | 29.83 | 9 | SW | |||
| Readington | NJ | 2026-05-04 17:04 | NCAWOS | 72 | 34 | 25 | 29.84 | 9 | WSW | |||
| Readington | NJ | 2026-05-04 14:09 | NCAWOS | 70 | 32 | 25 | 29.88 | 13 | WSW | |||
| Readington | NJ | 2026-05-04 16:25 | NCAWOS | 72 | 34 | 25 | 29.84 | 13 | WSW | |||
| Readington | NJ | 2026-05-04 16:15 | NCAWOS | 72 | 34 | 25 | 29.84 | 14 | WSW | |||
| Readington | NJ | 2026-05-04 16:09 | NCAWOS | 72 | 34 | 25 | 29.84 | 6 | WSW | |||
| Readington | NJ | 2026-05-04 16:04 | NCAWOS | 72 | 32 | 23 | 29.83 | 13 | WNW | |||
| Readington | NJ | 2026-05-04 15:24 | NCAWOS | 70 | 32 | 25 | 29.85 | 11 | SW | |||
| Readington | NJ | 2026-05-04 15:19 | NCAWOS | 70 | 34 | 26 | 29.85 | 11 | SW | |||
| Readington | NJ | 2026-05-04 15:14 | NCAWOS | 70 | 32 | 25 | 29.85 | 11 | WSW | |||
| Readington | NJ | 2026-05-04 15:09 | NCAWOS | 70 | 32 | 25 | 29.85 | 14 | SW | |||
| Readington | NJ | 2026-05-04 15:04 | NCAWOS | 70 | 32 | 25 | 29.85 | 10 | WSW | |||
| Readington | NJ | 2026-05-04 14:25 | NCAWOS | 70 | 32 | 25 | 29.87 | 14 | SW | |||
| Readington | NJ | 2026-05-04 14:14 | NCAWOS | 70 | 34 | 26 | 29.88 | 14 | WSW | |||
| Readington | NJ | 2026-05-05 06:30 | NCAWOS | 55 | 48 | 77 | 29.88 | 3 | SSE |
data collection created in 0.01579213142395 (queried in 0.003382) rendered in: 0.00014114379882812

